Crosby Odyssey — WDD4453 — position and weather

sailwx.info

Track history (hours):
 
Tides and Currents Weather Stations Pressure Air Temp Water Temp Dewpoint Dewpoint Depression Visibility Wind Speed Wind Dir Waves Ship Positions

Crosby Odyssey

Owner: Crosby Marine Transportation LLC, Golden Meadow, LA. More information available from US FCC via Universal Licensing System and Coast Guard Vessel Documentation Center.

Last reported at 2018-Feb-19 05:27 UTC. Time now 2018-Feb-19 05:48 UTC.
Position N 27°52' W 096°58'.

Length 42 m; draft 18 m.

Type: . MMSI: 367144880.

Date/timePositionNaut miles runAvg speedWind from/ knotsBaromVisibWave heightAir tempDewpointWater temp
2018-Feb-19 05:27N 27°52' W 096°58'2 3.6
2018-Feb-19 04:59N 27°51' W 096°60'2 3.5
2018-Feb-19 04:30N 27°49' W 097°01'3 5.3
2018-Feb-19 04:00N 27°49' W 096°58'2 4.3
2018-Feb-19 03:29N 27°50' W 096°60'0 0.7
2018-Feb-19 03:00N 27°49' W 096°60'2 3.6
2018-Feb-19 02:28N 27°49' W 096°58'2 4.3
2018-Feb-19 02:00N 27°51' W 096°58'2 3.9
2018-Feb-19 01:29N 27°53' W 096°58'1 1.1
2018-Feb-19 00:59N 27°53' W 096°57'2 4.3
2018-Feb-19 00:30N 27°55' W 096°56'1 2.2
2018-Feb-18 23:57N 27°54' W 096°57'2 3.8
2018-Feb-18 23:30N 27°52' W 096°58'1 1.3
2018-Feb-18 22:58N 27°52' W 096°57'2 4.4
2018-Feb-18 22:30N 27°54' W 096°56'1 2.2
2018-Feb-18 21:59N 27°53' W 096°57'1 1.5
2018-Feb-18 21:28N 27°52' W 096°57'2 4.5
2018-Feb-18 20:58N 27°54' W 096°56'1 1.7
2018-Feb-18 20:29N 27°55' W 096°55'2 3.9
2018-Feb-18 19:59N 27°53' W 096°57'0 0.6
2018-Feb-18 19:29N 27°53' W 096°56'2 4.5
2018-Feb-18 19:00N 27°55' W 096°55'0 0.4
2018-Feb-18 18:30N 27°55' W 096°55'2 4.0
2018-Feb-18 17:59N 27°54' W 096°57'1 2.2
2018-Feb-18 17:30N 27°53' W 096°57'2 4.4
2018-Feb-18 17:00N 27°55' W 096°56'0 0.2
2018-Feb-18 16:29N 27°55' W 096°56'2 3.9
2018-Feb-18 15:57N 27°53' W 096°57'0 0.9
2018-Feb-18 15:29N 27°53' W 096°57'2 4.7
2018-Feb-18 15:00N 27°54' W 096°56'2 4.5
2018-Feb-18 14:29N 27°56' W 096°54'1 3.0
2018-Feb-18 14:00N 27°55' W 096°55'2 3.9
2018-Feb-18 13:29N 27°54' W 096°56'2 3.6
2018-Feb-18 12:59N 27°52' W 096°57'2 4.4
2018-Feb-18 12:29N 27°53' W 096°56'2 4.6
2018-Feb-18 12:00N 27°55' W 096°54'1 1.8
2018-Feb-18 11:29N 27°55' W 096°55'2 3.9
2018-Feb-18 10:59N 27°53' W 096°56'1 1.5
2018-Feb-18 10:29N 27°54' W 096°56'2 4.6
2018-Feb-18 10:00N 27°55' W 096°54'2 4.4
2018-Feb-18 09:29N 27°57' W 096°53'1 3.0
2018-Feb-18 09:00N 27°56' W 096°54'2 3.9
2018-Feb-18 08:29N 27°55' W 096°56'2 3.8
2018-Feb-18 07:59N 27°53' W 096°57'1 1.2
2018-Feb-18 07:29N 27°53' W 096°56'2 4.6
2018-Feb-18 06:59N 27°55' W 096°55'1 2.6
2018-Feb-18 06:29N 27°56' W 096°54'2 3.9
2018-Feb-18 06:00N 27°55' W 096°55'2 3.7
2018-Feb-18 05:30N 27°53' W 096°56'0 0.8
2018-Feb-18 04:59N 27°53' W 096°57'2 4.5
2018-Feb-18 04:27N 27°55' W 096°55'2 4.1
2018-Feb-18 03:57N 27°56' W 096°54'2 3.7
2018-Feb-18 03:30N 27°55' W 096°55'2 3.9
2018-Feb-18 02:57N 27°53' W 096°56'1 2.9
2018-Feb-18 02:28N 27°52' W 096°57'2 4.7
2018-Feb-18 01:59N 27°54' W 096°56'2 4.5
2018-Feb-18 01:29N 27°56' W 096°54'2 3.3
2018-Feb-18 01:00N 27°55' W 096°55'2 3.9
2018-Feb-18 00:30N 27°53' W 096°57'1 1.1
2018-Feb-18 00:00N 27°53' W 096°57'2 4.7
2018-Feb-17 23:29N 27°55' W 096°55'1 1.0
2018-Feb-17 22:59N 27°54' W 096°56'2 3.9
2018-Feb-17 22:30N 27°53' W 096°57'0 0.6
2018-Feb-17 21:56N 27°53' W 096°57'2 4.6
2018-Feb-17 21:29N 27°54' W 096°56'2 4.5
2018-Feb-17 21:00N 27°56' W 096°54'1 2.6
2018-Feb-17 20:30N 27°55' W 096°55'2 3.9
2018-Feb-17 19:59N 27°53' W 096°55'2 3.7
2018-Feb-17 19:28N 27°55' W 096°55'1 1.7
2018-Feb-17 18:58N 27°56' W 096°55'2 3.9
2018-Feb-17 18:30N 27°54' W 096°56'2 4.0
2018-Feb-17 17:59N 27°53' W 096°57'1 1.1
2018-Feb-17 17:29N 27°52' W 096°57'2 4.5
2018-Feb-17 16:59N 27°54' W 096°55'1 3.0
2018-Feb-17 16:30N 27°56' W 096°55'2 3.9
2018-Feb-17 16:00N 27°54' W 096°56'2 4.0
2018-Feb-17 15:29N 27°52' W 096°57'2 4.1
2018-Feb-17 15:00N 27°51' W 096°58'2 3.8
2018-Feb-17 14:29N 27°50' W 097°00'2 4.0
2018-Feb-17 13:59N 27°52' W 096°59'2 4.2
2018-Feb-17 13:30N 27°53' W 096°57'2 3.8
2018-Feb-17 12:59N 27°53' W 096°55'2 4.3
2018-Feb-17 12:29N 27°52' W 096°53'2 4.5
2018-Feb-17 11:59N 27°52' W 096°50'2 4.5
2018-Feb-17 11:29N 27°52' W 096°48'2 4.4
2018-Feb-17 11:00N 27°53' W 096°46'2 4.4
2018-Feb-17 10:30N 27°53' W 096°43'1 2.6
2018-Feb-17 10:00N 27°54' W 096°42'2 4.2
2018-Feb-17 09:29N 27°54' W 096°44'2 4.2
2018-Feb-17 09:00N 27°54' W 096°47'2 4.0
2018-Feb-17 08:30N 27°55' W 096°49'2 3.9
2018-Feb-17 07:59N 27°55' W 096°51'2 3.6
2018-Feb-17 07:28N 27°55' W 096°53'2 3.7
2018-Feb-17 07:00N 27°54' W 096°55'2 3.4
2018-Feb-17 06:29N 27°53' W 096°55'2 4.4
2018-Feb-17 06:00N 27°52' W 096°53'2 4.7
2018-Feb-17 05:30N 27°52' W 096°51'2 3.7
2018-Feb-17 05:00N 27°51' W 096°49'3 6.4
2018-Feb-17 04:29N 27°50' W 096°45'4 8.2
2018-Feb-17 03:59N 27°48' W 096°41'4 8.2
2018-Feb-17 03:29N 27°47' W 096°37'5 7.8
2018-Feb-17 02:48N 27°46' W 096°31'4 7.8
2018-Feb-17 02:16N 27°45' W 096°26'3 8.0
2018-Feb-17 01:56N 27°45' W 096°23'4 7.9
2018-Feb-17 01:29N 27°44' W 096°19'34 7.2
2018-Feb-16 20:46N 27°39' W 095°41'2 7.0
2018-Feb-16 20:28N 27°39' W 095°39'  
Track history (hours):
 
Tides and Currents Weather Stations Pressure Air Temp Water Temp Dewpoint Dewpoint Depression Visibility Wind Speed Wind Dir Waves Ship Positions

Crosby Odyssey

Owner: Crosby Marine Transportation LLC, Golden Meadow, LA. More information available from US FCC via Universal Licensing System and Coast Guard Vessel Documentation Center.

Last reported at 2018-Feb-19 05:27 UTC. Time now 2018-Feb-19 05:48 UTC.
Position N 27°52' W 096°58'.

Length 42 m; draft 18 m.

Type: . MMSI: 367144880.

Date/timePositionNaut miles runAvg speedWind from/ knotsBaromVisibWave heightAir tempDewpointWater temp
2018-Feb-19 05:27N 27°52' W 096°58'2 3.6
2018-Feb-19 04:59N 27°51' W 096°60'2 3.5
2018-Feb-19 04:30N 27°49' W 097°01'3 5.3
2018-Feb-19 04:00N 27°49' W 096°58'2 4.3
2018-Feb-19 03:29N 27°50' W 096°60'0 0.7
2018-Feb-19 03:00N 27°49' W 096°60'2 3.6
2018-Feb-19 02:28N 27°49' W 096°58'2 4.3
2018-Feb-19 02:00N 27°51' W 096°58'2 3.9
2018-Feb-19 01:29N 27°53' W 096°58'1 1.1
2018-Feb-19 00:59N 27°53' W 096°57'2 4.3
2018-Feb-19 00:30N 27°55' W 096°56'1 2.2
2018-Feb-18 23:57N 27°54' W 096°57'2 3.8
2018-Feb-18 23:30N 27°52' W 096°58'1 1.3
2018-Feb-18 22:58N 27°52' W 096°57'2 4.4
2018-Feb-18 22:30N 27°54' W 096°56'1 2.2
2018-Feb-18 21:59N 27°53' W 096°57'1 1.5
2018-Feb-18 21:28N 27°52' W 096°57'2 4.5
2018-Feb-18 20:58N 27°54' W 096°56'1 1.7
2018-Feb-18 20:29N 27°55' W 096°55'2 3.9
2018-Feb-18 19:59N 27°53' W 096°57'0 0.6
2018-Feb-18 19:29N 27°53' W 096°56'2 4.5
2018-Feb-18 19:00N 27°55' W 096°55'0 0.4
2018-Feb-18 18:30N 27°55' W 096°55'2 4.0
2018-Feb-18 17:59N 27°54' W 096°57'1 2.2
2018-Feb-18 17:30N 27°53' W 096°57'2 4.4
2018-Feb-18 17:00N 27°55' W 096°56'0 0.2
2018-Feb-18 16:29N 27°55' W 096°56'2 3.9
2018-Feb-18 15:57N 27°53' W 096°57'0 0.9
2018-Feb-18 15:29N 27°53' W 096°57'2 4.7
2018-Feb-18 15:00N 27°54' W 096°56'2 4.5
2018-Feb-18 14:29N 27°56' W 096°54'1 3.0
2018-Feb-18 14:00N 27°55' W 096°55'2 3.9
2018-Feb-18 13:29N 27°54' W 096°56'2 3.6
2018-Feb-18 12:59N 27°52' W 096°57'2 4.4
2018-Feb-18 12:29N 27°53' W 096°56'2 4.6
2018-Feb-18 12:00N 27°55' W 096°54'1 1.8
2018-Feb-18 11:29N 27°55' W 096°55'2 3.9
2018-Feb-18 10:59N 27°53' W 096°56'1 1.5
2018-Feb-18 10:29N 27°54' W 096°56'2 4.6
2018-Feb-18 10:00N 27°55' W 096°54'2 4.4
2018-Feb-18 09:29N 27°57' W 096°53'1 3.0
2018-Feb-18 09:00N 27°56' W 096°54'2 3.9
2018-Feb-18 08:29N 27°55' W 096°56'2 3.8
2018-Feb-18 07:59N 27°53' W 096°57'1 1.2
2018-Feb-18 07:29N 27°53' W 096°56'2 4.6
2018-Feb-18 06:59N 27°55' W 096°55'1 2.6
2018-Feb-18 06:29N 27°56' W 096°54'2 3.9
2018-Feb-18 06:00N 27°55' W 096°55'2 3.7
2018-Feb-18 05:30N 27°53' W 096°56'0 0.8
2018-Feb-18 04:59N 27°53' W 096°57'2 4.5
2018-Feb-18 04:27N 27°55' W 096°55'2 4.1
2018-Feb-18 03:57N 27°56' W 096°54'2 3.7
2018-Feb-18 03:30N 27°55' W 096°55'2 3.9
2018-Feb-18 02:57N 27°53' W 096°56'1 2.9
2018-Feb-18 02:28N 27°52' W 096°57'2 4.7
2018-Feb-18 01:59N 27°54' W 096°56'2 4.5
2018-Feb-18 01:29N 27°56' W 096°54'2 3.3
2018-Feb-18 01:00N 27°55' W 096°55'2 3.9
2018-Feb-18 00:30N 27°53' W 096°57'1 1.1
2018-Feb-18 00:00N 27°53' W 096°57'2 4.7
2018-Feb-17 23:29N 27°55' W 096°55'1 1.0
2018-Feb-17 22:59N 27°54' W 096°56'2 3.9
2018-Feb-17 22:30N 27°53' W 096°57'0 0.6
2018-Feb-17 21:56N 27°53' W 096°57'2 4.6
2018-Feb-17 21:29N 27°54' W 096°56'2 4.5
2018-Feb-17 21:00N 27°56' W 096°54'1 2.6
2018-Feb-17 20:30N 27°55' W 096°55'2 3.9
2018-Feb-17 19:59N 27°53' W 096°55'2 3.7
2018-Feb-17 19:28N 27°55' W 096°55'1 1.7
2018-Feb-17 18:58N 27°56' W 096°55'2 3.9
2018-Feb-17 18:30N 27°54' W 096°56'2 4.0
2018-Feb-17 17:59N 27°53' W 096°57'1 1.1
2018-Feb-17 17:29N 27°52' W 096°57'2 4.5
2018-Feb-17 16:59N 27°54' W 096°55'1 3.0
2018-Feb-17 16:30N 27°56' W 096°55'2 3.9
2018-Feb-17 16:00N 27°54' W 096°56'2 4.0
2018-Feb-17 15:29N 27°52' W 096°57'2 4.1
2018-Feb-17 15:00N 27°51' W 096°58'2 3.8
2018-Feb-17 14:29N 27°50' W 097°00'2 4.0
2018-Feb-17 13:59N 27°52' W 096°59'2 4.2
2018-Feb-17 13:30N 27°53' W 096°57'2 3.8
2018-Feb-17 12:59N 27°53' W 096°55'2 4.3
2018-Feb-17 12:29N 27°52' W 096°53'2 4.5
2018-Feb-17 11:59N 27°52' W 096°50'2 4.5
2018-Feb-17 11:29N 27°52' W 096°48'2 4.4
2018-Feb-17 11:00N 27°53' W 096°46'2 4.4
2018-Feb-17 10:30N 27°53' W 096°43'1 2.6
2018-Feb-17 10:00N 27°54' W 096°42'2 4.2
2018-Feb-17 09:29N 27°54' W 096°44'2 4.2
2018-Feb-17 09:00N 27°54' W 096°47'2 4.0
2018-Feb-17 08:30N 27°55' W 096°49'2 3.9
2018-Feb-17 07:59N 27°55' W 096°51'2 3.6
2018-Feb-17 07:28N 27°55' W 096°53'2 3.7
2018-Feb-17 07:00N 27°54' W 096°55'2 3.4
2018-Feb-17 06:29N 27°53' W 096°55'2 4.4
2018-Feb-17 06:00N 27°52' W 096°53'2 4.7
2018-Feb-17 05:30N 27°52' W 096°51'2 3.7
2018-Feb-17 05:00N 27°51' W 096°49'3 6.4
2018-Feb-17 04:29N 27°50' W 096°45'4 8.2
2018-Feb-17 03:59N 27°48' W 096°41'4 8.2
2018-Feb-17 03:29N 27°47' W 096°37'5 7.8
2018-Feb-17 02:48N 27°46' W 096°31'4 7.8
2018-Feb-17 02:16N 27°45' W 096°26'3 8.0
2018-Feb-17 01:56N 27°45' W 096°23'4 7.9
2018-Feb-17 01:29N 27°44' W 096°19'34 7.2
2018-Feb-16 20:46N 27°39' W 095°41'2 7.0
2018-Feb-16 20:28N 27°39' W 095°39'  

Dump ship's entire track history